sensor_id;sensor_type;location;lat;lon;timestamp;P1;durP1;ratioP1;P2;durP2;ratioP2
52414;SDS011;38340;52.964;6.086;2022-09-21T00:00:37;4.72;;;3.30;;
52414;SDS011;38340;52.964;6.086;2022-09-21T00:03:04;6.70;;;3.63;;
52414;SDS011;38340;52.964;6.086;2022-09-21T00:05:31;5.97;;;3.35;;
52414;SDS011;38340;52.964;6.086;2022-09-21T00:08:04;4.03;;;2.67;;
52414;SDS011;38340;52.964;6.086;2022-09-21T00:10:31;6.22;;;3.80;;
52414;SDS011;38340;52.964;6.086;2022-09-21T00:12:57;6.50;;;3.05;;
52414;SDS011;38340;52.964;6.086;2022-09-21T00:15:23;8.13;;;3.75;;
52414;SDS011;38340;52.964;6.086;2022-09-21T00:17:53;6.57;;;3.92;;
52414;SDS011;38340;52.964;6.086;2022-09-21T00:20:21;6.70;;;3.50;;
52414;SDS011;38340;52.964;6.086;2022-09-21T00:22:48;5.90;;;3.92;;
52414;SDS011;38340;52.964;6.086;2022-09-21T00:25:14;4.00;;;3.20;;
52414;SDS011;38340;52.964;6.086;2022-09-21T00:27:40;5.82;;;2.97;;
52414;SDS011;38340;52.964;6.086;2022-09-21T00:30:07;5.55;;;3.40;;
52414;SDS011;38340;52.964;6.086;2022-09-21T00:32:34;5.32;;;3.20;;
52414;SDS011;38340;52.964;6.086;2022-09-21T00:35:02;4.57;;;3.22;;
52414;SDS011;38340;52.964;6.086;2022-09-21T00:37:28;6.13;;;3.20;;
52414;SDS011;38340;52.964;6.086;2022-09-21T00:39:55;3.72;;;2.22;;
52414;SDS011;38340;52.964;6.086;2022-09-21T00:42:22;6.63;;;3.33;;
52414;SDS011;38340;52.964;6.086;2022-09-21T00:44:50;4.75;;;3.30;;
52414;SDS011;38340;52.964;6.086;2022-09-21T00:47:17;6.72;;;2.78;;
52414;SDS011;38340;52.964;6.086;2022-09-21T00:49:47;3.95;;;2.20;;
52414;SDS011;38340;52.964;6.086;2022-09-21T00:52:18;5.13;;;2.97;;
52414;SDS011;38340;52.964;6.086;2022-09-21T00:54:46;4.30;;;2.10;;
52414;SDS011;38340;52.964;6.086;2022-09-21T00:57:22;3.58;;;2.40;;
52414;SDS011;38340;52.964;6.086;2022-09-21T00:59:50;3.60;;;2.83;;
52414;SDS011;38340;52.964;6.086;2022-09-21T01:02:21;4.85;;;2.97;;
52414;SDS011;38340;52.964;6.086;2022-09-21T01:04:47;4.40;;;2.25;;
52414;SDS011;38340;52.964;6.086;2022-09-21T01:07:18;4.25;;;2.58;;
52414;SDS011;38340;52.964;6.086;2022-09-21T01:09:47;4.90;;;2.70;;
52414;SDS011;38340;52.964;6.086;2022-09-21T01:15:07;5.25;;;3.05;;
52414;SDS011;38340;52.964;6.086;2022-09-21T01:26:24;4.50;;;2.95;;
52414;SDS011;38340;52.964;6.086;2022-09-21T01:29:11;3.53;;;2.45;;
52414;SDS011;38340;52.964;6.086;2022-09-21T01:31:44;3.22;;;2.30;;
52414;SDS011;38340;52.964;6.086;2022-09-21T01:34:24;3.85;;;2.60;;
52414;SDS011;38340;52.964;6.086;2022-09-21T01:37:12;4.60;;;3.30;;
52414;SDS011;38340;52.964;6.086;2022-09-21T01:39:44;5.82;;;3.30;;
52414;SDS011;38340;52.964;6.086;2022-09-21T01:42:14;4.63;;;3.38;;
52414;SDS011;38340;52.964;6.086;2022-09-21T01:44:41;5.47;;;3.50;;
52414;SDS011;38340;52.964;6.086;2022-09-21T01:47:10;6.78;;;3.67;;
52414;SDS011;38340;52.964;6.086;2022-09-21T01:49:39;5.72;;;3.58;;
52414;SDS011;38340;52.964;6.086;2022-09-21T01:52:31;5.38;;;3.17;;
52414;SDS011;38340;52.964;6.086;2022-09-21T01:55:05;4.97;;;3.67;;
52414;SDS011;38340;52.964;6.086;2022-09-21T01:57:39;5.05;;;3.25;;
52414;SDS011;38340;52.964;6.086;2022-09-21T02:00:11;3.50;;;2.58;;
52414;SDS011;38340;52.964;6.086;2022-09-21T02:05:10;4.28;;;2.78;;
52414;SDS011;38340;52.964;6.086;2022-09-21T02:07:40;4.07;;;2.80;;
52414;SDS011;38340;52.964;6.086;2022-09-21T02:10:07;5.28;;;3.20;;
52414;SDS011;38340;52.964;6.086;2022-09-21T02:12:37;7.28;;;2.88;;
52414;SDS011;38340;52.964;6.086;2022-09-21T02:15:04;4.95;;;3.00;;
52414;SDS011;38340;52.964;6.086;2022-09-21T02:20:42;3.72;;;2.28;;
52414;SDS011;38340;52.964;6.086;2022-09-21T02:23:28;2.60;;;2.00;;
52414;SDS011;38340;52.964;6.086;2022-09-21T02:31:09;3.30;;;2.45;;
52414;SDS011;38340;52.964;6.086;2022-09-21T02:34:08;3.20;;;2.30;;
52414;SDS011;38340;52.964;6.086;2022-09-21T02:37:01;3.58;;;2.40;;
52414;SDS011;38340;52.964;6.086;2022-09-21T02:39:37;4.55;;;3.05;;
52414;SDS011;38340;52.964;6.086;2022-09-21T02:42:18;5.82;;;3.30;;
52414;SDS011;38340;52.964;6.086;2022-09-21T02:44:54;6.07;;;3.65;;
52414;SDS011;38340;52.964;6.086;2022-09-21T02:47:35;5.25;;;3.50;;
52414;SDS011;38340;52.964;6.086;2022-09-21T02:50:08;5.30;;;3.53;;
52414;SDS011;38340;52.964;6.086;2022-09-21T02:52:40;4.95;;;3.42;;
52414;SDS011;38340;52.964;6.086;2022-09-21T02:55:08;6.43;;;3.78;;
52414;SDS011;38340;52.964;6.086;2022-09-21T02:57:35;6.07;;;3.42;;
52414;SDS011;38340;52.964;6.086;2022-09-21T03:00:03;4.25;;;3.17;;
52414;SDS011;38340;52.964;6.086;2022-09-21T03:02:39;8.02;;;2.80;;
52414;SDS011;38340;52.964;6.086;2022-09-21T03:05:07;4.13;;;2.45;;
52414;SDS011;38340;52.964;6.086;2022-09-21T03:07:34;3.97;;;3.08;;
52414;SDS011;38340;52.964;6.086;2022-09-21T03:10:00;4.68;;;3.35;;
52414;SDS011;38340;52.964;6.086;2022-09-21T03:12:26;4.15;;;2.92;;
52414;SDS011;38340;52.964;6.086;2022-09-21T03:14:51;4.55;;;3.28;;
52414;SDS011;38340;52.964;6.086;2022-09-21T03:17:18;6.15;;;3.00;;
52414;SDS011;38340;52.964;6.086;2022-09-21T03:19:44;4.65;;;3.10;;
52414;SDS011;38340;52.964;6.086;2022-09-21T03:22:09;5.88;;;3.70;;
52414;SDS011;38340;52.964;6.086;2022-09-21T03:24:35;4.43;;;3.40;;
52414;SDS011;38340;52.964;6.086;2022-09-21T03:27:09;4.43;;;3.73;;
52414;SDS011;38340;52.964;6.086;2022-09-21T03:29:36;5.35;;;3.80;;
52414;SDS011;38340;52.964;6.086;2022-09-21T03:32:02;6.05;;;3.42;;
52414;SDS011;38340;52.964;6.086;2022-09-21T03:34:27;4.88;;;2.90;;
52414;SDS011;38340;52.964;6.086;2022-09-21T03:36:55;4.63;;;3.50;;
52414;SDS011;38340;52.964;6.086;2022-09-21T03:39:22;4.05;;;3.63;;
52414;SDS011;38340;52.964;6.086;2022-09-21T03:41:47;19.27;;;4.00;;
52414;SDS011;38340;52.964;6.086;2022-09-21T03:44:14;8.50;;;3.60;;
52414;SDS011;38340;52.964;6.086;2022-09-21T03:46:41;3.30;;;2.80;;
52414;SDS011;38340;52.964;6.086;2022-09-21T03:49:08;5.47;;;3.00;;
52414;SDS011;38340;52.964;6.086;2022-09-21T03:51:34;3.30;;;2.75;;
52414;SDS011;38340;52.964;6.086;2022-09-21T03:53:59;5.75;;;2.83;;
52414;SDS011;38340;52.964;6.086;2022-09-21T03:56:25;4.07;;;2.60;;
52414;SDS011;38340;52.964;6.086;2022-09-21T03:58:51;5.75;;;3.10;;
52414;SDS011;38340;52.964;6.086;2022-09-21T04:01:16;3.95;;;2.65;;
52414;SDS011;38340;52.964;6.086;2022-09-21T04:03:42;4.20;;;3.50;;
52414;SDS011;38340;52.964;6.086;2022-09-21T04:06:08;5.82;;;3.00;;
52414;SDS011;38340;52.964;6.086;2022-09-21T04:08:35;4.10;;;3.08;;
52414;SDS011;38340;52.964;6.086;2022-09-21T04:11:01;5.43;;;3.08;;
52414;SDS011;38340;52.964;6.086;2022-09-21T04:13:37;6.03;;;3.45;;
52414;SDS011;38340;52.964;6.086;2022-09-21T04:16:03;4.40;;;3.40;;
52414;SDS011;38340;52.964;6.086;2022-09-21T04:18:28;4.65;;;3.17;;
52414;SDS011;38340;52.964;6.086;2022-09-21T04:20:54;5.45;;;3.00;;
52414;SDS011;38340;52.964;6.086;2022-09-21T04:23:20;7.75;;;2.92;;
52414;SDS011;38340;52.964;6.086;2022-09-21T04:25:47;3.80;;;2.65;;
52414;SDS011;38340;52.964;6.086;2022-09-21T04:28:15;3.58;;;2.88;;
52414;SDS011;38340;52.964;6.086;2022-09-21T04:30:41;3.10;;;2.50;;
52414;SDS011;38340;52.964;6.086;2022-09-21T04:33:07;3.03;;;2.33;;
52414;SDS011;38340;52.964;6.086;2022-09-21T04:35:33;3.22;;;2.58;;
52414;SDS011;38340;52.964;6.086;2022-09-21T04:37:58;4.22;;;3.00;;
52414;SDS011;38340;52.964;6.086;2022-09-21T04:40:24;3.70;;;3.13;;
52414;SDS011;38340;52.964;6.086;2022-09-21T04:42:53;4.15;;;3.40;;
52414;SDS011;38340;52.964;6.086;2022-09-21T04:45:20;3.97;;;3.17;;
52414;SDS011;38340;52.964;6.086;2022-09-21T04:47:46;4.10;;;2.92;;
52414;SDS011;38340;52.964;6.086;2022-09-21T04:50:12;3.85;;;3.13;;
52414;SDS011;38340;52.964;6.086;2022-09-21T04:52:38;4.15;;;3.35;;
52414;SDS011;38340;52.964;6.086;2022-09-21T04:55:04;4.75;;;3.47;;
52414;SDS011;38340;52.964;6.086;2022-09-21T04:57:30;6.03;;;3.33;;
52414;SDS011;38340;52.964;6.086;2022-09-21T04:59:56;3.75;;;3.05;;
52414;SDS011;38340;52.964;6.086;2022-09-21T05:02:22;3.58;;;2.85;;
52414;SDS011;38340;52.964;6.086;2022-09-21T05:04:47;6.70;;;4.15;;
52414;SDS011;38340;52.964;6.086;2022-09-21T05:07:14;26.52;;;4.30;;
52414;SDS011;38340;52.964;6.086;2022-09-21T05:09:40;3.53;;;2.65;;
52414;SDS011;38340;52.964;6.086;2022-09-21T05:12:24;4.10;;;3.50;;
52414;SDS011;38340;52.964;6.086;2022-09-21T05:14:49;5.78;;;3.33;;
52414;SDS011;38340;52.964;6.086;2022-09-21T05:17:15;4.30;;;3.15;;
52414;SDS011;38340;52.964;6.086;2022-09-21T05:19:41;6.00;;;3.17;;
52414;SDS011;38340;52.964;6.086;2022-09-21T05:22:07;4.07;;;3.17;;
52414;SDS011;38340;52.964;6.086;2022-09-21T05:24:32;4.28;;;2.88;;
52414;SDS011;38340;52.964;6.086;2022-09-21T05:26:58;5.20;;;3.08;;
52414;SDS011;38340;52.964;6.086;2022-09-21T05:29:24;8.95;;;3.10;;
52414;SDS011;38340;52.964;6.086;2022-09-21T05:31:51;4.40;;;3.28;;
52414;SDS011;38340;52.964;6.086;2022-09-21T05:39:36;4.95;;;3.67;;
52414;SDS011;38340;52.964;6.086;2022-09-21T05:42:01;3.35;;;2.83;;
52414;SDS011;38340;52.964;6.086;2022-09-21T05:44:27;4.93;;;2.95;;
52414;SDS011;38340;52.964;6.086;2022-09-21T05:49:46;7.68;;;3.42;;
52414;SDS011;38340;52.964;6.086;2022-09-21T05:54:51;5.55;;;3.50;;
52414;SDS011;38340;52.964;6.086;2022-09-21T05:57:40;5.07;;;3.40;;
52414;SDS011;38340;52.964;6.086;2022-09-21T06:00:23;4.20;;;3.20;;
52414;SDS011;38340;52.964;6.086;2022-09-21T06:02:55;4.55;;;3.30;;
52414;SDS011;38340;52.964;6.086;2022-09-21T06:05:28;5.05;;;3.88;;
52414;SDS011;38340;52.964;6.086;2022-09-21T06:07:54;4.05;;;3.35;;
52414;SDS011;38340;52.964;6.086;2022-09-21T06:10:19;5.45;;;4.18;;
52414;SDS011;38340;52.964;6.086;2022-09-21T06:12:45;16.10;;;6.47;;
52414;SDS011;38340;52.964;6.086;2022-09-21T06:15:12;21.25;;;10.40;;
52414;SDS011;38340;52.964;6.086;2022-09-21T06:17:39;16.98;;;6.25;;
52414;SDS011;38340;52.964;6.086;2022-09-21T06:20:05;15.68;;;7.85;;
52414;SDS011;38340;52.964;6.086;2022-09-21T06:22:31;9.55;;;5.38;;
52414;SDS011;38340;52.964;6.086;2022-09-21T06:24:58;6.32;;;4.47;;
52414;SDS011;38340;52.964;6.086;2022-09-21T06:27:23;4.90;;;3.55;;
52414;SDS011;38340;52.964;6.086;2022-09-21T06:29:49;6.25;;;3.75;;
52414;SDS011;38340;52.964;6.086;2022-09-21T06:32:16;4.32;;;3.53;;
52414;SDS011;38340;52.964;6.086;2022-09-21T06:34:42;5.72;;;4.03;;
52414;SDS011;38340;52.964;6.086;2022-09-21T06:37:08;4.55;;;3.65;;
52414;SDS011;38340;52.964;6.086;2022-09-21T06:39:34;7.25;;;3.50;;
52414;SDS011;38340;52.964;6.086;2022-09-21T06:41:59;14.25;;;4.35;;
52414;SDS011;38340;52.964;6.086;2022-09-21T06:44:25;5.47;;;3.78;;
52414;SDS011;38340;52.964;6.086;2022-09-21T06:46:51;6.63;;;4.43;;
52414;SDS011;38340;52.964;6.086;2022-09-21T06:49:17;4.15;;;3.67;;
52414;SDS011;38340;52.964;6.086;2022-09-21T06:51:42;5.53;;;4.18;;
52414;SDS011;38340;52.964;6.086;2022-09-21T06:54:08;5.68;;;4.47;;
52414;SDS011;38340;52.964;6.086;2022-09-21T06:56:34;5.50;;;4.72;;
52414;SDS011;38340;52.964;6.086;2022-09-21T06:59:00;6.15;;;4.80;;
52414;SDS011;38340;52.964;6.086;2022-09-21T07:01:25;13.43;;;5.93;;
52414;SDS011;38340;52.964;6.086;2022-09-21T07:03:51;6.60;;;5.90;;
52414;SDS011;38340;52.964;6.086;2022-09-21T07:06:18;6.53;;;5.40;;
52414;SDS011;38340;52.964;6.086;2022-09-21T07:08:44;8.30;;;6.18;;
52414;SDS011;38340;52.964;6.086;2022-09-21T07:11:16;7.65;;;6.63;;
52414;SDS011;38340;52.964;6.086;2022-09-21T07:13:41;8.15;;;6.45;;
52414;SDS011;38340;52.964;6.086;2022-09-21T07:16:08;9.60;;;6.40;;
52414;SDS011;38340;52.964;6.086;2022-09-21T07:18:34;6.82;;;5.82;;
52414;SDS011;38340;52.964;6.086;2022-09-21T07:21:03;11.13;;;5.57;;
52414;SDS011;38340;52.964;6.086;2022-09-21T07:23:30;7.35;;;5.97;;
52414;SDS011;38340;52.964;6.086;2022-09-21T07:25:59;8.80;;;6.05;;
52414;SDS011;38340;52.964;6.086;2022-09-21T07:28:29;7.75;;;6.00;;
52414;SDS011;38340;52.964;6.086;2022-09-21T07:30:56;9.00;;;6.70;;
52414;SDS011;38340;52.964;6.086;2022-09-21T07:33:23;8.68;;;5.97;;
52414;SDS011;38340;52.964;6.086;2022-09-21T07:35:53;7.10;;;5.85;;
52414;SDS011;38340;52.964;6.086;2022-09-21T07:38:21;10.80;;;6.22;;
52414;SDS011;38340;52.964;6.086;2022-09-21T07:40:46;8.95;;;6.22;;
52414;SDS011;38340;52.964;6.086;2022-09-21T07:43:12;11.13;;;6.70;;
52414;SDS011;38340;52.964;6.086;2022-09-21T07:45:38;8.77;;;6.90;;
52414;SDS011;38340;52.964;6.086;2022-09-21T07:48:04;7.82;;;6.43;;
52414;SDS011;38340;52.964;6.086;2022-09-21T07:50:31;8.45;;;5.82;;
52414;SDS011;38340;52.964;6.086;2022-09-21T07:53:01;6.05;;;5.45;;
52414;SDS011;38340;52.964;6.086;2022-09-21T07:55:27;10.35;;;5.38;;
52414;SDS011;38340;52.964;6.086;2022-09-21T07:57:53;7.57;;;4.82;;
52414;SDS011;38340;52.964;6.086;2022-09-21T08:00:37;12.02;;;5.03;;
52414;SDS011;38340;52.964;6.086;2022-09-21T08:03:04;10.50;;;4.63;;
52414;SDS011;38340;52.964;6.086;2022-09-21T08:05:30;9.50;;;3.92;;
52414;SDS011;38340;52.964;6.086;2022-09-21T08:07:57;7.35;;;3.90;;
52414;SDS011;38340;52.964;6.086;2022-09-21T08:10:23;8.88;;;3.90;;
52414;SDS011;38340;52.964;6.086;2022-09-21T08:12:52;7.50;;;4.00;;
52414;SDS011;38340;52.964;6.086;2022-09-21T08:15:18;5.93;;;2.95;;
52414;SDS011;38340;52.964;6.086;2022-09-21T08:17:45;7.38;;;4.05;;
52414;SDS011;38340;52.964;6.086;2022-09-21T08:20:10;5.20;;;3.00;;
52414;SDS011;38340;52.964;6.086;2022-09-21T08:22:37;8.80;;;2.67;;
52414;SDS011;38340;52.964;6.086;2022-09-21T08:25:04;7.53;;;3.50;;
52414;SDS011;38340;52.964;6.086;2022-09-21T08:27:30;5.43;;;2.55;;
52414;SDS011;38340;52.964;6.086;2022-09-21T08:29:55;4.63;;;1.73;;
52414;SDS011;38340;52.964;6.086;2022-09-21T08:32:22;4.88;;;2.28;;
52414;SDS011;38340;52.964;6.086;2022-09-21T08:34:47;3.88;;;1.90;;
52414;SDS011;38340;52.964;6.086;2022-09-21T08:37:14;4.82;;;1.33;;
52414;SDS011;38340;52.964;6.086;2022-09-21T08:39:40;3.13;;;1.38;;
52414;SDS011;38340;52.964;6.086;2022-09-21T08:44:54;4.35;;;1.50;;
52414;SDS011;38340;52.964;6.086;2022-09-21T08:47:34;6.95;;;2.10;;
52414;SDS011;38340;52.964;6.086;2022-09-21T08:53:08;7.80;;;1.63;;
52414;SDS011;38340;52.964;6.086;2022-09-21T08:55:43;6.80;;;2.08;;
52414;SDS011;38340;52.964;6.086;2022-09-21T08:58:27;4.22;;;1.35;;
52414;SDS011;38340;52.964;6.086;2022-09-21T09:08:58;6.47;;;1.55;;
52414;SDS011;38340;52.964;6.086;2022-09-21T09:11:51;4.75;;;1.40;;
52414;SDS011;38340;52.964;6.086;2022-09-21T09:14:48;5.30;;;1.70;;
52414;SDS011;38340;52.964;6.086;2022-09-21T09:17:46;6.38;;;1.38;;
52414;SDS011;38340;52.964;6.086;2022-09-21T09:22:43;6.40;;;1.50;;
52414;SDS011;38340;52.964;6.086;2022-09-21T09:25:15;3.60;;;1.80;;
52414;SDS011;38340;52.964;6.086;2022-09-21T09:27:54;4.45;;;1.48;;
52414;SDS011;38340;52.964;6.086;2022-09-21T09:30:25;5.07;;;1.52;;
52414;SDS011;38340;52.964;6.086;2022-09-21T09:35:47;7.28;;;1.58;;
52414;SDS011;38340;52.964;6.086;2022-09-21T09:38:29;5.70;;;1.60;;
52414;SDS011;38340;52.964;6.086;2022-09-21T09:46:32;7.55;;;1.73;;
52414;SDS011;38340;52.964;6.086;2022-09-21T09:51:52;6.65;;;2.40;;
52414;SDS011;38340;52.964;6.086;2022-09-21T09:54:18;4.53;;;1.50;;
52414;SDS011;38340;52.964;6.086;2022-09-21T09:56:47;3.65;;;1.65;;
52414;SDS011;38340;52.964;6.086;2022-09-21T09:59:31;5.72;;;2.20;;
52414;SDS011;38340;52.964;6.086;2022-09-21T10:02:03;6.07;;;1.60;;
52414;SDS011;38340;52.964;6.086;2022-09-21T10:04:55;5.40;;;1.50;;
52414;SDS011;38340;52.964;6.086;2022-09-21T10:07:35;7.28;;;1.70;;
52414;SDS011;38340;52.964;6.086;2022-09-21T10:12:47;3.75;;;1.20;;
52414;SDS011;38340;52.964;6.086;2022-09-21T10:15:15;6.00;;;1.73;;
52414;SDS011;38340;52.964;6.086;2022-09-21T10:17:43;5.30;;;1.33;;
52414;SDS011;38340;52.964;6.086;2022-09-21T10:20:15;5.25;;;1.30;;
52414;SDS011;38340;52.964;6.086;2022-09-21T10:22:43;5.22;;;1.55;;
52414;SDS011;38340;52.964;6.086;2022-09-21T10:25:15;6.45;;;1.45;;
52414;SDS011;38340;52.964;6.086;2022-09-21T10:27:43;3.90;;;1.35;;
52414;SDS011;38340;52.964;6.086;2022-09-21T10:32:54;4.75;;;1.20;;
52414;SDS011;38340;52.964;6.086;2022-09-21T10:35:22;5.20;;;1.60;;
52414;SDS011;38340;52.964;6.086;2022-09-21T10:37:48;5.65;;;1.88;;
52414;SDS011;38340;52.964;6.086;2022-09-21T10:40:35;4.78;;;1.50;;
52414;SDS011;38340;52.964;6.086;2022-09-21T10:43:02;3.08;;;1.20;;
52414;SDS011;38340;52.964;6.086;2022-09-21T10:45:32;4.65;;;1.50;;
52414;SDS011;38340;52.964;6.086;2022-09-21T10:55:37;7.22;;;1.38;;
52414;SDS011;38340;52.964;6.086;2022-09-21T10:58:09;3.55;;;1.60;;
52414;SDS011;38340;52.964;6.086;2022-09-21T11:00:41;5.50;;;1.83;;
52414;SDS011;38340;52.964;6.086;2022-09-21T11:06:02;4.45;;;1.20;;
52414;SDS011;38340;52.964;6.086;2022-09-21T11:15:15;6.93;;;1.75;;
52414;SDS011;38340;52.964;6.086;2022-09-21T11:20:47;3.22;;;1.38;;
52414;SDS011;38340;52.964;6.086;2022-09-21T11:29:01;5.57;;;1.33;;
52414;SDS011;38340;52.964;6.086;2022-09-21T11:31:57;4.03;;;1.20;;
52414;SDS011;38340;52.964;6.086;2022-09-21T11:51:12;7.55;;;1.42;;
52414;SDS011;38340;52.964;6.086;2022-09-21T11:57:15;4.43;;;1.23;;
52414;SDS011;38340;52.964;6.086;2022-09-21T12:13:31;3.53;;;1.30;;
52414;SDS011;38340;52.964;6.086;2022-09-21T12:19:01;4.28;;;1.20;;
52414;SDS011;38340;52.964;6.086;2022-09-21T12:22:05;7.45;;;2.60;;
52414;SDS011;38340;52.964;6.086;2022-09-21T12:24:55;7.18;;;1.88;;
52414;SDS011;38340;52.964;6.086;2022-09-21T12:27:43;4.97;;;1.20;;
52414;SDS011;38340;52.964;6.086;2022-09-21T12:30:26;4.90;;;1.42;;
52414;SDS011;38340;52.964;6.086;2022-09-21T12:35:38;4.15;;;1.10;;
52414;SDS011;38340;52.964;6.086;2022-09-21T12:38:34;3.40;;;0.90;;
52414;SDS011;38340;52.964;6.086;2022-09-21T12:41:22;7.03;;;1.58;;
52414;SDS011;38340;52.964;6.086;2022-09-21T12:44:15;3.33;;;1.20;;
52414;SDS011;38340;52.964;6.086;2022-09-21T12:46:54;4.00;;;1.33;;
52414;SDS011;38340;52.964;6.086;2022-09-21T12:49:33;4.65;;;1.40;;
52414;SDS011;38340;52.964;6.086;2022-09-21T12:52:06;3.38;;;1.25;;
52414;SDS011;38340;52.964;6.086;2022-09-21T13:08:00;9.68;;;1.95;;
52414;SDS011;38340;52.964;6.086;2022-09-21T13:16:35;3.15;;;1.40;;
52414;SDS011;38340;52.964;6.086;2022-09-21T13:21:40;4.22;;;1.73;;
52414;SDS011;38340;52.964;6.086;2022-09-21T13:24:22;3.80;;;1.73;;
52414;SDS011;38340;52.964;6.086;2022-09-21T13:26:52;3.63;;;1.25;;
52414;SDS011;38340;52.964;6.086;2022-09-21T13:34:34;4.18;;;1.15;;
52414;SDS011;38340;52.964;6.086;2022-09-21T13:42:44;4.03;;;1.52;;
52414;SDS011;38340;52.964;6.086;2022-09-21T13:47:41;6.75;;;1.13;;
52414;SDS011;38340;52.964;6.086;2022-09-21T13:50:10;4.25;;;1.25;;
52414;SDS011;38340;52.964;6.086;2022-09-21T13:52:56;3.33;;;1.23;;
52414;SDS011;38340;52.964;6.086;2022-09-21T13:58:05;4.78;;;1.40;;
52414;SDS011;38340;52.964;6.086;2022-09-21T14:00:40;5.65;;;1.38;;
52414;SDS011;38340;52.964;6.086;2022-09-21T14:06:06;5.82;;;1.70;;
52414;SDS011;38340;52.964;6.086;2022-09-21T14:08:35;3.63;;;1.27;;
52414;SDS011;38340;52.964;6.086;2022-09-21T14:11:14;3.25;;;1.38;;
52414;SDS011;38340;52.964;6.086;2022-09-21T14:14:03;1.95;;;1.08;;
52414;SDS011;38340;52.964;6.086;2022-09-21T14:22:41;2.88;;;1.30;;
52414;SDS011;38340;52.964;6.086;2022-09-21T14:24:43;4.18;;;1.30;;
52414;SDS011;38340;52.964;6.086;2022-09-21T14:27:42;4.78;;;1.50;;
52414;SDS011;38340;52.964;6.086;2022-09-21T14:30:22;5.43;;;1.85;;
52414;SDS011;38340;52.964;6.086;2022-09-21T14:35:26;7.47;;;1.80;;
52414;SDS011;38340;52.964;6.086;2022-09-21T14:37:57;4.40;;;1.55;;
52414;SDS011;38340;52.964;6.086;2022-09-21T14:40:36;5.50;;;1.70;;
52414;SDS011;38340;52.964;6.086;2022-09-21T14:43:07;7.13;;;1.58;;
52414;SDS011;38340;52.964;6.086;2022-09-21T14:48:37;7.43;;;1.73;;
52414;SDS011;38340;52.964;6.086;2022-09-21T14:54:06;5.63;;;1.42;;
52414;SDS011;38340;52.964;6.086;2022-09-21T14:59:26;3.90;;;1.60;;
52414;SDS011;38340;52.964;6.086;2022-09-21T15:02:12;3.20;;;1.40;;
52414;SDS011;38340;52.964;6.086;2022-09-21T15:04:55;5.43;;;1.70;;
52414;SDS011;38340;52.964;6.086;2022-09-21T15:13:13;3.15;;;1.40;;
52414;SDS011;38340;52.964;6.086;2022-09-21T15:15:59;4.72;;;1.52;;
52414;SDS011;38340;52.964;6.086;2022-09-21T15:18:32;4.35;;;1.80;;
52414;SDS011;38340;52.964;6.086;2022-09-21T15:21:03;4.18;;;1.40;;
52414;SDS011;38340;52.964;6.086;2022-09-21T15:23:35;6.90;;;1.65;;
52414;SDS011;38340;52.964;6.086;2022-09-21T15:26:09;2.80;;;1.30;;
52414;SDS011;38340;52.964;6.086;2022-09-21T15:28:47;8.27;;;2.13;;
52414;SDS011;38340;52.964;6.086;2022-09-21T15:31:15;6.90;;;2.00;;
52414;SDS011;38340;52.964;6.086;2022-09-21T15:33:42;8.90;;;4.22;;
52414;SDS011;38340;52.964;6.086;2022-09-21T15:36:12;8.75;;;4.03;;
52414;SDS011;38340;52.964;6.086;2022-09-21T15:38:48;6.55;;;2.15;;
52414;SDS011;38340;52.964;6.086;2022-09-21T15:44:16;9.00;;;2.30;;
52414;SDS011;38340;52.964;6.086;2022-09-21T15:46:45;4.30;;;1.77;;
52414;SDS011;38340;52.964;6.086;2022-09-21T15:49:14;6.18;;;2.20;;
52414;SDS011;38340;52.964;6.086;2022-09-21T15:51:49;6.35;;;2.40;;
52414;SDS011;38340;52.964;6.086;2022-09-21T15:56:54;6.03;;;2.00;;
52414;SDS011;38340;52.964;6.086;2022-09-21T15:59:20;5.35;;;1.67;;
52414;SDS011;38340;52.964;6.086;2022-09-21T16:01:52;9.32;;;1.98;;
52414;SDS011;38340;52.964;6.086;2022-09-21T16:04:23;2.88;;;1.67;;
52414;SDS011;38340;52.964;6.086;2022-09-21T16:07:06;4.38;;;1.92;;
52414;SDS011;38340;52.964;6.086;2022-09-21T16:09:49;4.35;;;1.95;;
52414;SDS011;38340;52.964;6.086;2022-09-21T16:14:51;6.20;;;2.08;;
52414;SDS011;38340;52.964;6.086;2022-09-21T16:17:22;5.00;;;2.30;;
52414;SDS011;38340;52.964;6.086;2022-09-21T16:22:18;5.70;;;1.70;;
52414;SDS011;38340;52.964;6.086;2022-09-21T16:24:49;5.15;;;2.40;;
52414;SDS011;38340;52.964;6.086;2022-09-21T16:27:17;5.43;;;2.05;;
52414;SDS011;38340;52.964;6.086;2022-09-21T16:29:45;5.45;;;1.70;;
52414;SDS011;38340;52.964;6.086;2022-09-21T16:34:49;5.70;;;1.98;;
52414;SDS011;38340;52.964;6.086;2022-09-21T16:39:53;9.70;;;2.55;;
52414;SDS011;38340;52.964;6.086;2022-09-21T16:42:20;14.93;;;2.75;;
52414;SDS011;38340;52.964;6.086;2022-09-21T16:44:47;10.55;;;1.80;;
52414;SDS011;38340;52.964;6.086;2022-09-21T16:47:15;4.60;;;1.88;;
52414;SDS011;38340;52.964;6.086;2022-09-21T16:49:52;7.47;;;2.13;;
52414;SDS011;38340;52.964;6.086;2022-09-21T16:52:21;6.65;;;1.77;;
52414;SDS011;38340;52.964;6.086;2022-09-21T16:54:52;4.85;;;1.60;;
52414;SDS011;38340;52.964;6.086;2022-09-21T16:57:20;7.10;;;2.00;;
52414;SDS011;38340;52.964;6.086;2022-09-21T16:59:47;3.40;;;1.80;;
52414;SDS011;38340;52.964;6.086;2022-09-21T17:02:14;7.32;;;2.30;;
52414;SDS011;38340;52.964;6.086;2022-09-21T17:04:41;5.03;;;2.20;;
52414;SDS011;38340;52.964;6.086;2022-09-21T17:07:11;7.25;;;2.40;;
52414;SDS011;38340;52.964;6.086;2022-09-21T17:09:42;5.28;;;1.98;;
52414;SDS011;38340;52.964;6.086;2022-09-21T17:12:11;6.95;;;1.88;;
52414;SDS011;38340;52.964;6.086;2022-09-21T17:14:38;6.55;;;1.88;;
52414;SDS011;38340;52.964;6.086;2022-09-21T17:17:12;4.88;;;1.58;;
52414;SDS011;38340;52.964;6.086;2022-09-21T17:19:42;6.68;;;2.30;;
52414;SDS011;38340;52.964;6.086;2022-09-21T17:22:10;7.30;;;2.13;;
52414;SDS011;38340;52.964;6.086;2022-09-21T17:24:59;5.20;;;2.40;;
52414;SDS011;38340;52.964;6.086;2022-09-21T17:27:25;6.80;;;2.17;;
52414;SDS011;38340;52.964;6.086;2022-09-21T17:29:51;6.10;;;2.08;;
52414;SDS011;38340;52.964;6.086;2022-09-21T17:32:19;6.25;;;1.80;;
52414;SDS011;38340;52.964;6.086;2022-09-21T17:34:49;6.10;;;2.15;;
52414;SDS011;38340;52.964;6.086;2022-09-21T17:37:25;6.22;;;2.70;;
52414;SDS011;38340;52.964;6.086;2022-09-21T17:39:51;6.68;;;3.17;;
52414;SDS011;38340;52.964;6.086;2022-09-21T17:42:18;12.43;;;3.28;;
52414;SDS011;38340;52.964;6.086;2022-09-21T17:44:53;6.30;;;2.70;;
52414;SDS011;38340;52.964;6.086;2022-09-21T17:47:29;8.85;;;2.85;;
52414;SDS011;38340;52.964;6.086;2022-09-21T17:49:58;11.25;;;2.70;;
52414;SDS011;38340;52.964;6.086;2022-09-21T17:52:38;8.05;;;2.50;;
52414;SDS011;38340;52.964;6.086;2022-09-21T17:55:24;7.75;;;2.58;;
52414;SDS011;38340;52.964;6.086;2022-09-21T18:03:24;3.67;;;2.03;;
52414;SDS011;38340;52.964;6.086;2022-09-21T18:05:52;4.32;;;2.10;;
52414;SDS011;38340;52.964;6.086;2022-09-21T18:08:27;5.30;;;2.38;;
52414;SDS011;38340;52.964;6.086;2022-09-21T18:25:44;7.20;;;2.15;;
52414;SDS011;38340;52.964;6.086;2022-09-21T18:28:22;7.05;;;2.38;;
52414;SDS011;38340;52.964;6.086;2022-09-21T18:34:04;8.27;;;2.10;;
52414;SDS011;38340;52.964;6.086;2022-09-21T18:42:21;8.48;;;2.13;;
52414;SDS011;38340;52.964;6.086;2022-09-21T18:50:22;3.97;;;1.80;;
52414;SDS011;38340;52.964;6.086;2022-09-21T18:55:46;4.32;;;2.22;;
52414;SDS011;38340;52.964;6.086;2022-09-21T18:58:13;7.68;;;2.50;;
52414;SDS011;38340;52.964;6.086;2022-09-21T19:00:40;4.82;;;1.80;;
52414;SDS011;38340;52.964;6.086;2022-09-21T19:03:10;6.28;;;2.20;;
52414;SDS011;38340;52.964;6.086;2022-09-21T19:05:39;6.50;;;2.20;;
52414;SDS011;38340;52.964;6.086;2022-09-21T19:10:53;9.45;;;3.20;;
52414;SDS011;38340;52.964;6.086;2022-09-21T19:13:35;9.30;;;3.88;;
52414;SDS011;38340;52.964;6.086;2022-09-21T19:16:15;7.60;;;3.40;;
52414;SDS011;38340;52.964;6.086;2022-09-21T19:29:38;37.65;;;26.92;;
52414;SDS011;38340;52.964;6.086;2022-09-21T19:32:16;22.30;;;18.00;;